^^
Lisbon, NH - Weather Station Historical Data
Daily Summary for November 18, 2021 Units:  English    Metric   Both
Daily Weekly Monthly Yearly
  High: Low: Average:
Temperature: 64.2 °F 33.4 °F 46.6 °F
Dew Point: 55.6 °F 33.4 °F 43.6 °F
Humidity: 100% 64.2% 90%
Wind Speed: 4.9mph 0mph 1mph
Wind Gust: 14mph - -
Wind- - SSE
Pressure: 30.03 in 29.70 in -
Precipitation: 0.27 in    
 
 
Tabular Data for November 18, 2021
Time Temperature Dew Point Pressure Wind Wind Speed Wind Gust Humidity Rainfall Rate (Hourly) solar
00:04 37.3 °F 36 °F 30.03 in NE 1.4 mph 6 mph 95% 0.00 in 0 W/m2
00:09 37.4 °F 36.1 °F 30.03 in ENE 1.8 mph 4 mph 95% 0.00 in 0 W/m2
00:14 37.5 °F 36.2 °F 30.03 in ENE 0.9 mph 3 mph 95% 0.00 in 0 W/m2
00:19 37.5 °F 36.2 °F 30.03 in ENE 1.3 mph 5 mph 95% 0.00 in 0 W/m2
00:24 37.5 °F 36.2 °F 30.03 in NE 1.1 mph 3 mph 95% 0.00 in 0 W/m2
00:29 37.5 °F 36.1 °F 30.03 in ENE 0.7 mph 3 mph 94.5% 0.00 in 0 W/m2
00:34 37.5 °F 35.9 °F 30.03 in ENE 0.2 mph 1 mph 94% 0.00 in 0 W/m2
00:39 37.5 °F 35.9 °F 30.03 in Calm   1 mph 94% 0.00 in 0 W/m2
00:44 37.6 °F 36 °F 30.03 in NE 0.3 mph 2 mph 94% 0.00 in 0 W/m2
00:49 37.6 °F 36 °F 30.02 in ENE 0.9 mph 2 mph 94% 0.00 in 0 W/m2
00:54 37.7 °F 36.2 °F 30.02 in NE 0.5 mph 2 mph 94% 0.00 in 0 W/m2
00:59 37.8 °F 36.2 °F 30.02 in NE 0.3 mph 1 mph 94% 0.00 in 0 W/m2
01:04 37.8 °F 36.2 °F 30.02 in ENE 0.6 mph 2 mph 94% 0.00 in 0 W/m2
01:09 37.8 °F 36.2 °F 30.02 in NE 0.9 mph 2 mph 94% 0.00 in 0 W/m2
01:14 37.8 °F 36.2 °F 30.02 in North 0.1 mph 2 mph 94% 0.00 in 0 W/m2
01:19 37.6 °F 36 °F 30.01 in NE 0.4 mph 2 mph 94% 0.00 in 0 W/m2
01:24 37.6 °F 36 °F 30.01 in NE 0.5 mph 2 mph 94% 0.00 in 0 W/m2
01:29 37.6 °F 36 °F 30.01 in NE 0.7 mph 2 mph 94% 0.00 in 0 W/m2
01:34 37.4 °F 35.8 °F 30.01 in NE 0.1 mph 2 mph 94% 0.00 in 0 W/m2
01:39 37.3 °F 35.7 °F 30.01 in NE 0.1 mph 1 mph 94% 0.00 in 0 W/m2
01:44 37.2 °F 35.7 °F 30.01 in NE 0.6 mph 3 mph 94.1% 0.00 in 0 W/m2
01:49 37 °F 35.7 °F 30.01 in ENE 0.3 mph 3 mph 95% 0.00 in 0 W/m2
01:54 37 °F 35.7 °F 30.01 in ENE 0.2 mph 2 mph 95% 0.00 in 0 W/m2
01:59 37 °F 35.7 °F 30.01 in NE 0.1 mph 1 mph 95% 0.00 in 0 W/m2
02:04 36.9 °F 35.6 °F 30.00 in Calm   1 mph 95% 0.00 in 0 W/m2
02:09 36.9 °F 35.6 °F 30.00 in ENE 0.8 mph 3 mph 95% 0.00 in 0 W/m2
02:14 36.9 °F 35.7 °F 30.00 in ENE 0.6 mph 2 mph 95.5% 0.00 in 0 W/m2
02:19 36.8 °F 35.8 °F 30.00 in NE 0.2 mph 1 mph 96% 0.00 in 0 W/m2
02:24 36.8 °F 35.8 °F 30.00 in NE 0.4 mph 2 mph 96% 0.00 in 0 W/m2
02:29 36.7 °F 35.6 °F 30.00 in NE 0.5 mph 1 mph 96% 0.00 in 0 W/m2
02:34 36.6 °F 35.6 °F 30.00 in NNE 0.4 mph 2 mph 96% 0.00 in 0 W/m2
02:54 36.5 °F 35.7 °F 30.00 in NNE 0.1 mph 1 mph 97% 0.00 in 0 W/m2
02:59 36.5 °F 35.7 °F 30.00 in NNE 0.1 mph 1 mph 97% 0.00 in 0 W/m2
03:04 36.5 °F 35.7 °F 29.99 in Calm   1 mph 97% 0.00 in 0 W/m2
03:09 36.5 °F 35.7 °F 29.99 in NNE 0.2 mph 2 mph 97% 0.00 in 0 W/m2
03:14 36.5 °F 35.7 °F 29.99 in Calm     97% 0.00 in 0 W/m2
03:19 36.5 °F 35.7 °F 29.98 in NNE 0.1 mph 1 mph 97% 0.00 in 0 W/m2
03:24 36.5 °F 35.7 °F 29.98 in NNE 0.2 mph 1 mph 97% 0.00 in 0 W/m2
03:29 36.5 °F 35.7 °F 29.98 in NNE 0.5 mph 2 mph 97% 0.00 in 0 W/m2
03:34 36.4 °F 35.6 °F 29.98 in NE 0.6 mph 2 mph 97% 0.00 in 0 W/m2
03:39 36.3 °F 35.5 °F 29.98 in NNE 0.4 mph 2 mph 97% 0.00 in 0 W/m2
03:44 36.3 °F 35.5 °F 29.98 in NNE 0.3 mph 1 mph 97% 0.00 in 0 W/m2
03:49 36.2 °F 35.5 °F 29.98 in NNE 0.1 mph 1 mph 97.4% 0.00 in 0 W/m2
03:54 36.1 °F 35.6 °F 29.98 in Calm   1 mph 98% 0.00 in 0 W/m2
03:59 36 °F 35.5 °F 29.98 in NNE 0.1 mph 1 mph 98% 0.00 in 0 W/m2
04:04 35.9 °F 35.4 °F 29.97 in Calm   1 mph 98% 0.00 in 0 W/m2
04:09 35.8 °F 35.3 °F 29.97 in North 0.5 mph 2 mph 98% 0.00 in 0 W/m2
04:14 35.7 °F 35.2 °F 29.97 in Calm   1 mph 98% 0.00 in 0 W/m2
04:19 35.7 °F 35.2 °F 29.97 in Calm   1 mph 98% 0.00 in 0 W/m2
04:24 35.8 °F 35.3 °F 29.97 in Calm     98% 0.00 in 0 W/m2
04:29 35.8 °F 35.3 °F 29.97 in Calm     98% 0.00 in 0 W/m2
04:34 35.8 °F 35.4 °F 29.97 in Calm     98.5% 0.00 in 0 W/m2
04:39 35.8 °F 35.6 °F 29.97 in Calm   1 mph 99% 0.00 in 0 W/m2
04:44 35.8 °F 35.6 °F 29.97 in Calm     99% 0.00 in 0 W/m2
04:49 35.8 °F 35.5 °F 29.97 in Calm     99% 0.00 in 0 W/m2
04:54 35.6 °F 35.4 °F 29.97 in North 0.1 mph 1 mph 99% 0.00 in 0 W/m2
04:59 35.6 °F 35.3 °F 29.97 in Calm   1 mph 99% 0.00 in 0 W/m2
05:04 35.5 °F 35.3 °F 29.97 in Calm     99% 0.00 in 0 W/m2
05:09 35.4 °F 35.2 °F 29.97 in Calm     99% 0.00 in 0 W/m2
05:14 35.3 °F 35 °F 29.97 in Calm     99% 0.00 in 0 W/m2
05:19 35.1 °F 34.8 °F 29.97 in Calm     99% 0.00 in 0 W/m2
05:24 35 °F 34.7 °F 29.97 in Calm     99% 0.00 in 0 W/m2
05:29 34.8 °F 34.6 °F 29.97 in Calm     99% 0.00 in 0 W/m2
05:34 34.7 °F 34.4 °F 29.97 in Calm     99% 0.00 in 0 W/m2
05:39 34.6 °F 34.3 °F 29.97 in Calm     99% 0.00 in 0 W/m2
05:44 34.4 °F 34.2 °F 29.97 in Calm     99% 0.00 in 0 W/m2
05:49 34.4 °F 34.2 °F 29.96 in Calm     99% 0.00 in 0 W/m2
05:54 34.3 °F 34.1 °F 29.96 in Calm     99% 0.00 in 0 W/m2
05:59 34.3 °F 34 °F 29.96 in Calm     99% 0.00 in 0 W/m2
06:04 34.1 °F 33.8 °F 29.96 in Calm     99% 0.00 in 0 W/m2
06:09 34.1 °F 33.8 °F 29.96 in Calm     99% 0.00 in 0 W/m2
06:14 34 °F 33.8 °F 29.96 in North 0.2 mph 1 mph 99% 0.00 in 0 W/m2
06:19 33.8 °F 33.7 °F 29.96 in Calm   1 mph 99.4% 0.00 in 0 W/m2
06:24 33.8 °F 33.8 °F 29.96 in North 0.2 mph 1 mph 100% 0.00 in 0 W/m2
06:29 33.8 °F 33.8 °F 29.96 in Calm     100% 0.00 in 0 W/m2
06:34 33.7 °F 33.7 °F 29.95 in Calm     100% 0.00 in 5 W/m2
06:35 33.7 °F 33.7 °F 29.95 in Calm     100% 0.00 in 5 W/m2
06:44 33.5 °F 33.5 °F 29.95 in Calm   1 mph 100% 0.00 in 5 W/m2
06:49 33.4 °F 33.4 °F 29.95 in North 0.1 mph 1 mph 100% 0.00 in 7 W/m2
06:54 33.4 °F 33.4 °F 29.95 in Calm     100% 0.00 in 12 W/m2
06:59 33.4 °F 33.4 °F 29.96 in Calm     100% 0.00 in 14 W/m2
07:04 33.4 °F 33.4 °F 29.96 in Calm     100% 0.00 in 14 W/m2
07:09 33.4 °F 33.4 °F 29.96 in Calm     100% 0.00 in 18 W/m2
07:14 33.4 °F 33.4 °F 29.96 in North 0.5 mph 1 mph 100% 0.00 in 25 W/m2
07:19 33.5 °F 33.5 °F 29.95 in North 0.4 mph 1 mph 100% 0.00 in 32 W/m2
07:24 33.7 °F 33.7 °F 29.95 in North 0.7 mph 2 mph 100% 0.00 in 33 W/m2
07:29 33.8 °F 33.8 °F 29.95 in NE 1.6 mph 3 mph 100% 0.00 in 32 W/m2
07:34 34 °F 34 °F 29.95 in NNE 1 mph 2 mph 100% 0.00 in 35 W/m2
07:39 34.1 °F 34.1 °F 29.95 in North 0.3 mph 2 mph 100% 0.00 in 35 W/m2
07:44 34.2 °F 34.2 °F 29.95 in North 0.1 mph 2 mph 100% 0.00 in 30 W/m2
07:49 34.3 °F 34.3 °F 29.95 in North 0.2 mph 2 mph 100% 0.00 in 76 W/m2
07:54 34.6 °F 34.6 °F 29.95 in Calm     100% 0.00 in 70 W/m2
07:59 34.7 °F 34.7 °F 29.95 in Calm     100% 0.00 in 48 W/m2
08:04 35 °F 35 °F 29.95 in NNE 0.6 mph 2 mph 100% 0.00 in 102 W/m2
08:09 35.5 °F 35.5 °F 29.95 in NE 1.5 mph 3 mph 100% 0.00 in 127 W/m2
08:14 36 °F 36 °F 29.95 in ENE 1.6 mph 3 mph 100% 0.00 in 143 W/m2
08:19 36.3 °F 36.3 °F 29.94 in NE 1.4 mph 2 mph 100% 0.00 in 143 W/m2
08:24 36.4 °F 36.4 °F 29.94 in ENE 1.3 mph 3 mph 100% 0.00 in 181 W/m2
08:29 37 °F 37 °F 29.94 in ENE 2 mph 3 mph 100% 0.00 in 195 W/m2
08:34 37.5 °F 37.5 °F 29.93 in ENE 2.3 mph 5 mph 100% 0.00 in 199 W/m2
08:39 38 °F 38 °F 29.93 in ENE 3 mph 5 mph 100% 0.00 in 255 W/m2
08:44 38.6 °F 38.6 °F 29.93 in ENE 1.8 mph 3 mph 100% 0.00 in 276 W/m2
08:49 39.1 °F 39.1 °F 29.93 in ENE 2.3 mph 4 mph 100% 0.00 in 211 W/m2
08:54 39.4 °F 39.2 °F 29.93 in ENE 1.5 mph 3 mph 99.2% 0.00 in 134 W/m2
08:59 39.6 °F 39.1 °F 29.93 in ENE 0.9 mph 2 mph 98% 0.00 in 90 W/m2
09:04 39.4 °F 38.7 °F 29.92 in ENE 0.8 mph 2 mph 97.2% 0.00 in 121 W/m2
09:09 39.4 °F 38.7 °F 29.92 in ENE 0.8 mph 2 mph 97% 0.00 in 164 W/m2
09:14 39.9 °F 39.1 °F 29.92 in ENE 1.1 mph 2 mph 97% 0.00 in 315 W/m2
09:19 40.3 °F 39.6 °F 29.92 in ENE 1.3 mph 2 mph 97% 0.00 in 343 W/m2
09:24 40.9 °F 39.9 °F 29.92 in East 1.6 mph 3 mph 95.9% 0.00 in 343 W/m2
09:29 41.5 °F 40.2 °F 29.92 in NE 1.2 mph 2 mph 95.2% 0.00 in 324 W/m2
09:34 42.4 °F 40.7 °F 29.91 in NE 1.5 mph 2 mph 93.9% 0.00 in 318 W/m2
09:39 43 °F 40.7 °F 29.91 in East 1.7 mph 3 mph 91.5% 0.00 in 333 W/m2
09:44 43.2 °F 40.7 °F 29.91 in ENE 1.9 mph 3 mph 90.8% 0.00 in 355 W/m2
09:49 44.1 °F 41.3 °F 29.90 in ENE 2.2 mph 5 mph 89.8% 0.00 in 366 W/m2
09:54 44.8 °F 41.3 °F 29.90 in NE 1.7 mph 3 mph 87.2% 0.00 in 362 W/m2
09:59 45.4 °F 41.5 °F 29.90 in ENE 1.5 mph 3 mph 86% 0.00 in 384 W/m2
10:04 45.9 °F 41.9 °F 29.90 in East 1.8 mph 3 mph 86% 0.00 in 403 W/m2
10:09 46.6 °F 42.4 °F 29.90 in ENE 1.8 mph 3 mph 85.1% 0.00 in 410 W/m2
10:14 47.5 °F 42.8 °F 29.90 in ENE 2.1 mph 3 mph 83.6% 0.00 in 405 W/m2
10:19 48 °F 43.1 °F 29.88 in ENE 1.6 mph 2 mph 83% 0.00 in 403 W/m2
10:24 49.1 °F 43.5 °F 29.88 in ENE 1.5 mph 3 mph 81.2% 0.00 in 403 W/m2
10:29 49.4 °F 43.9 °F 29.88 in NE 0.8 mph 2 mph 81.2% 0.00 in 320 W/m2
10:34 49.6 °F 44 °F 29.87 in NE 0.3 mph 1 mph 80.8% 0.00 in 218 W/m2
10:39 50.1 °F 44.5 °F 29.87 in NE 0.2 mph 1 mph 81% 0.00 in 218 W/m2
10:44 50.7 °F 45.2 °F 29.87 in South 0.4 mph 2 mph 81.2% 0.00 in 199 W/m2
10:49 51.7 °F 46.8 °F 29.86 in WNW 0.9 mph 3 mph 83.4% 0.00 in 113 W/m2
10:54 52.4 °F 47.8 °F 29.86 in NW 0.8 mph 5 mph 84% 0.00 in 116 W/m2
10:59 52.9 °F 48.2 °F 29.86 in West 1.9 mph 5 mph 83.9% 0.00 in 248 W/m2
11:04 53.4 °F 48.6 °F 29.85 in WNW 1.4 mph 3 mph 83.7% 0.00 in 454 W/m2
11:09 54.3 °F 49.2 °F 29.85 in SSW 1.4 mph 3 mph 82.8% 0.00 in 435 W/m2
11:14 55.4 °F 49.3 °F 29.85 in SSW 1.4 mph 3 mph 79.7% 0.00 in 426 W/m2
11:19 56.3 °F 49.5 °F 29.84 in SSW 2.1 mph 6 mph 78% 0.00 in 426 W/m2
11:24 57 °F 49.7 °F 29.84 in WSW 1.8 mph 6 mph 76.4% 0.00 in 477 W/m2
11:29 57.6 °F 49.9 °F 29.84 in SW 3 mph 8 mph 75.5% 0.00 in 480 W/m2
11:34 58.1 °F 50.1 °F 29.83 in West 2 mph 6 mph 74.7% 0.00 in 456 W/m2
11:39 58.1 °F 50.2 °F 29.83 in WNW 2 mph 5 mph 74.8% 0.00 in 394 W/m2
11:44 58.1 °F 50.4 °F 29.83 in WNW 1.4 mph 4 mph 75.5% 0.00 in 387 W/m2
11:49 58.2 °F 50.4 °F 29.82 in West 1.6 mph 7 mph 75.2% 0.00 in 487 W/m2
11:54 58.6 °F 50.7 °F 29.82 in WSW 1 mph 7 mph 74.8% 0.00 in 480 W/m2
11:59 59.5 °F 50.9 °F 29.82 in WNW 1.6 mph 6 mph 73.2% 0.00 in 440 W/m2
12:04 59.8 °F 50.9 °F 29.81 in NW 2.3 mph 7 mph 72.1% 0.00 in 436 W/m2
12:09 59.8 °F 51.1 °F 29.81 in West 1.7 mph 6 mph 72.8% 0.00 in 438 W/m2
12:14 59.8 °F 51.1 °F 29.81 in WNW 1.8 mph 6 mph 72.9% 0.00 in 438 W/m2
12:19 60.1 °F 51.1 °F 29.80 in SW 0.9 mph 6 mph 72.2% 0.00 in 419 W/m2
12:24 60.7 °F 51.3 °F 29.80 in WSW 1.8 mph 5 mph 71% 0.00 in 429 W/m2
12:29 61.2 °F 51.4 °F 29.80 in West 2.3 mph 7 mph 70.1% 0.00 in 403 W/m2
12:34 61.2 °F 51.3 °F 29.78 in WSW 3.5 mph 7 mph 69.9% 0.00 in 405 W/m2
12:39 61.3 °F 51.7 °F 29.78 in WNW 1.6 mph 5 mph 70.7% 0.00 in 412 W/m2
12:44 61.7 °F 51.5 °F 29.78 in West 2 mph 6 mph 69.2% 0.00 in 421 W/m2
12:49 62.1 °F 51.6 °F 29.78 in WNW 2.6 mph 7 mph 68.4% 0.00 in 387 W/m2
12:54 62.3 °F 51.6 °F 29.78 in West 2.7 mph 8 mph 68% 0.00 in 392 W/m2
12:59 62.5 °F 51.7 °F 29.78 in West 2.2 mph 7 mph 67.7% 0.00 in 466 W/m2
13:04 62.9 °F 51.8 °F 29.77 in WSW 2.6 mph 7 mph 67.1% 0.00 in 457 W/m2
13:09 63.3 °F 51.9 °F 29.77 in West 2.5 mph 8 mph 66.4% 0.00 in 447 W/m2
13:14 63.6 °F 52.1 °F 29.77 in West 2.5 mph 8 mph 66% 0.00 in 406 W/m2
13:19 63.5 °F 52.2 °F 29.75 in West 3 mph 8 mph 66.6% 0.00 in 406 W/m2
13:24 63.4 °F 52.2 °F 29.75 in West 1.8 mph 3 mph 67% 0.00 in 208 W/m2
13:29 63.3 °F 52.3 °F 29.75 in West 1.9 mph 6 mph 67.4% 0.00 in 454 W/m2
13:34 63.8 °F 52.1 °F 29.74 in SW 4.5 mph 13 mph 65.7% 0.00 in 378 W/m2
13:39 64.2 °F 51.9 °F 29.74 in WSW 4.9 mph 14 mph 64.4% 0.00 in 352 W/m2
13:44 64.2 °F 51.9 °F 29.74 in WSW 3.5 mph 14 mph 64.2% 0.00 in 352 W/m2
13:49 64.2 °F 52.1 °F 29.73 in WSW 3 mph 12 mph 64.8% 0.00 in 289 W/m2
13:54 64.2 °F 52.2 °F 29.73 in SW 2.5 mph 10 mph 65.1% 0.00 in 274 W/m2
13:59 64.1 °F 52.5 °F 29.73 in West 2 mph 5 mph 66% 0.00 in 266 W/m2
14:04 63.7 °F 52.6 °F 29.73 in West 1.6 mph 6 mph 67.2% 0.00 in 229 W/m2
14:09 63.5 °F 52.7 °F 29.73 in WSW 2.5 mph 7 mph 68% 0.00 in 216 W/m2
14:14 63.4 °F 52.6 °F 29.73 in West 2.1 mph 5 mph 67.8% 0.00 in 181 W/m2
14:19 63.1 °F 52.6 °F 29.72 in West 2.3 mph 5 mph 68.4% 0.00 in 58 W/m2
14:24 62.7 °F 52.5 °F 29.72 in WNW 2.3 mph 5 mph 69.3% 0.00 in 76 W/m2
14:29 62.4 °F 52.5 °F 29.73 in WNW 1.6 mph 5 mph 70% 0.00 in 74 W/m2
14:34 62.2 °F 52.3 °F 29.73 in WNW 1.7 mph 5 mph 70.1% 0.00 in 58 W/m2
14:39 62 °F 52.5 °F 29.73 in West 1.4 mph 6 mph 71% 0.00 in 55 W/m2
14:44 61.7 °F 52.2 °F 29.73 in West 1.8 mph 5 mph 71% 0.00 in 42 W/m2
14:49 61.5 °F 52.2 °F 29.72 in WNW 1.7 mph 5 mph 71.3% 0.00 in 39 W/m2
14:54 61.3 °F 52.2 °F 29.72 in WNW 1.8 mph 6 mph 72% 0.00 in 30 W/m2
14:59 61.2 °F 52.4 °F 29.72 in WNW 2.3 mph 6 mph 72.8% 0.00 in 33 W/m2
15:04 61 °F 52.5 °F 29.72 in WNW 1.5 mph 4 mph 73.4% 0.00 in 42 W/m2
15:09 60.9 °F 52.5 °F 29.72 in WNW 1.3 mph 3 mph 74% 0.00 in 33 W/m2
15:14 60.6 °F 52.6 °F 29.72 in WNW 1.5 mph 4 mph 74.9% 0.00 in 25 W/m2
15:19 60.5 °F 52.5 °F 29.72 in WNW 1.3 mph 4 mph 75% 0.00 in 25 W/m2
15:24 60.3 °F 52.7 °F 29.72 in WNW 1.1 mph 3 mph 75.9% 0.00 in 18 W/m2
15:29 60.1 °F 52.5 °F 29.72 in WNW 1.6 mph 5 mph 76% 0.00 in 11 W/m2
15:34 59.9 °F 52.3 °F 29.72 in WNW 1.9 mph 3 mph 76% 0.00 in 11 W/m2
15:39 59.8 °F 52.3 °F 29.72 in WNW 1.7 mph 5 mph 76.1% 0.00 in 12 W/m2
15:44 59.8 °F 52.5 °F 29.72 in WNW 1.8 mph 5 mph 77% 0.00 in 12 W/m2
15:49 59.6 °F 52.4 °F 29.71 in WNW 0.8 mph 5 mph 77% 0.00 in 14 W/m2
15:54 59.6 °F 52.5 °F 29.71 in NW 0.2 mph 2 mph 77.3% 0.00 in 16 W/m2
15:59 59.5 °F 52.6 °F 29.71 in Calm   1 mph 78% 0.00 in 12 W/m2
16:04 59.4 °F 52.9 °F 29.70 in NW 0.8 mph 2 mph 79% 0.00 in 12 W/m2
16:09 59.2 °F 53.1 °F 29.70 in NNW 0.2 mph 1 mph 80.3% 0.00 in 7 W/m2
16:14 58.8 °F 53.2 °F 29.70 in NNW 0.1 mph 1 mph 81.6% 0.00 in 5 W/m2
16:19 58.4 °F 53.4 °F 29.70 in NNW 0.1 mph 1 mph 83.3% 0.00 in 0 W/m2
16:24 57.9 °F 53.3 °F 29.70 in NW 0.1 mph 1 mph 84.6% 0.00 in 0 W/m2
16:29 57.4 °F 53.3 °F 29.70 in WNW 0.4 mph 2 mph 86.3% 0.00 in 0 W/m2
16:34 57 °F 53.4 °F 29.70 in WNW 1.1 mph 3 mph 87.7% 0.00 in 0 W/m2
16:39 56.7 °F 53.7 °F 29.70 in WNW 1.8 mph 3 mph 89.6% 0.00 in 0 W/m2
16:44 56.8 °F 54 °F 29.72 in WNW 2.5 mph 6 mph 90.2% 0.01 in 0 W/m2
16:47 56.9 °F 54.3 °F 29.72 in WNW 1.4 mph 5 mph 91% 0.02 in 0 W/m2
16:59 56.6 °F 54.8 °F 29.72 in West 0.5 mph 2 mph 93.5% 0.02 in 0 W/m2
17:04 56.5 °F 54.8 °F 29.71 in WSW 0.2 mph 2 mph 94% 0.02 in 0 W/m2
17:09 56.3 °F 54.8 °F 29.71 in WSW 0.7 mph 2 mph 94.8% 0.02 in 0 W/m2
17:14 56 °F 54.7 °F 29.73 in WSW 0.5 mph 2 mph 95.4% 0.03 in 0 W/m2
17:19 55.7 °F 54.7 °F 29.73 in WSW 0.9 mph 2 mph 96.3% 0.05 in 0 W/m2
17:24 55.6 °F 54.9 °F 29.73 in SSW 2 mph 6 mph 97.4% 0.06 in 0 W/m2
17:29 55.6 °F 55.1 °F 29.75 in SW 1.9 mph 6 mph 98.3% 0.07 in 0 W/m2
17:34 55.6 °F 55.4 °F 29.75 in SW 1.2 mph 3 mph 99% 0.10 in 0 W/m2
17:39 55.7 °F 55.4 °F 29.75 in SSW 0.7 mph 2 mph 99% 0.11 in 0 W/m2
17:44 55.6 °F 55.4 °F 29.77 in SW 0.3 mph 1 mph 99.4% 0.13 in 0 W/m2
17:49 55.6 °F 55.6 °F 29.77 in SW 0.1 mph 1 mph 100% 0.16 in 0 W/m2
17:54 55.5 °F 55.4 °F 29.77 in ENE 1.9 mph 4 mph 99.9% 0.17 in 0 W/m2
17:59 54.4 °F 53.8 °F 29.78 in North 2.1 mph 6 mph 97.8% 0.19 in 0 W/m2
18:04 52.7 °F 51.8 °F 29.78 in East 3.7 mph 9 mph 96.7% 0.19 in 0 W/m2
18:09 51.4 °F 50.3 °F 29.78 in ENE 2.8 mph 8 mph 96.2% 0.19 in 0 W/m2
18:14 50.5 °F 49.3 °F 29.80 in ESE 3.2 mph 7 mph 95.6% 0.19 in 0 W/m2
18:19 50 °F 48.6 °F 29.80 in SE 1 mph 5 mph 95% 0.19 in 0 W/m2
18:24 49.8 °F 48.5 °F 29.80 in South 0.4 mph 2 mph 95.3% 0.19 in 0 W/m2
18:29 49.7 °F 48.6 °F 29.81 in East 0.6 mph 2 mph 95.8% 0.16 in 0 W/m2
18:34 49.6 °F 48.5 °F 29.81 in East 0.4 mph 1 mph 96.1% 0.16 in 0 W/m2
18:39 49.6 °F 48.8 °F 29.81 in East 0.2 mph 1 mph 97% 0.15 in 0 W/m2
18:44 49.5 °F 48.9 °F 29.82 in East 0.1 mph 1 mph 97.6% 0.15 in 0 W/m2
18:49 49.5 °F 49 °F 29.82 in SE 0.8 mph 2 mph 98% 0.11 in 0 W/m2
18:54 49.5 °F 49.1 °F 29.82 in South 0.7 mph 2 mph 98.8% 0.11 in 0 W/m2
18:59 49.4 °F 49.1 °F 29.82 in South 0.5 mph 2 mph 99% 0.06 in 0 W/m2
19:04 49.4 °F 49.2 °F 29.82 in Calm     99.3% 0.06 in 0 W/m2
19:09 49.3 °F 49.3 °F 29.82 in SW 0.4 mph 2 mph 100% 0.01 in 0 W/m2
19:14 49.2 °F 49.2 °F 29.83 in Calm   1 mph 100% 0.01 in 0 W/m2
19:19 49.2 °F 49.2 °F 29.83 in ESE 0.7 mph 3 mph 100% 0.02 in 0 W/m2
19:24 48.8 °F 48.8 °F 29.83 in ENE 0.6 mph 3 mph 100% 0.02 in 0 W/m2
19:29 48.6 °F 48.6 °F 29.84 in ENE 1.1 mph 3 mph 100% 0.02 in 0 W/m2
19:34 48.5 °F 48.5 °F 29.84 in NE 0.8 mph 2 mph 100% 0.03 in 0 W/m2
19:39 48.4 °F 48.4 °F 29.84 in NE 1 mph 3 mph 100% 0.03 in 0 W/m2
19:44 48.3 °F 48.3 °F 29.84 in NE 1.6 mph 7 mph 100% 0.03 in 0 W/m2
19:49 48 °F 48 °F 29.84 in NE 3.5 mph 8 mph 100% 0.02 in 0 W/m2
19:54 47.6 °F 47.5 °F 29.84 in NE 3.1 mph 7 mph 99.7% 0.02 in 0 W/m2
19:59 47.1 °F 46.8 °F 29.86 in NNE 2.3 mph 8 mph 99% 0.02 in 0 W/m2
20:04 46.7 °F 46.4 °F 29.86 in North 0.6 mph 2 mph 99% 0.02 in 0 W/m2
20:09 46.5 °F 46.2 °F 29.86 in North 0.4 mph 1 mph 99% 0.02 in 0 W/m2
20:14 46.3 °F 46.1 °F 29.86 in NNE 0.7 mph 2 mph 99% 0.02 in 0 W/m2
20:19 46.2 °F 45.9 °F 29.86 in Calm   1 mph 99% 0.02 in 0 W/m2
20:24 46.2 °F 45.9 °F 29.86 in NE 0.2 mph 1 mph 99% 0.02 in 0 W/m2
20:29 46.1 °F 45.8 °F 29.87 in NNE 0.7 mph 2 mph 99% 0.02 in 0 W/m2
20:34 46.1 °F 45.8 °F 29.87 in NE 0.4 mph 2 mph 99% 0.02 in 0 W/m2
20:39 46.1 °F 45.8 °F 29.87 in ENE 0.6 mph 2 mph 99% 0.03 in 0 W/m2
20:44 46 °F 46 °F 29.88 in ENE 1.1 mph 2 mph 99.8% 0.03 in 0 W/m2
20:49 46 °F 46 °F 29.88 in NE 0.9 mph 2 mph 100% 0.02 in 0 W/m2
20:54 45.8 °F 45.7 °F 29.88 in ENE 2.8 mph 6 mph 99.7% 0.03 in 0 W/m2
20:59 45.4 °F 45.2 °F 29.88 in ENE 2.7 mph 6 mph 99% 0.03 in 0 W/m2
21:04 45.3 °F 45 °F 29.88 in NE 0.9 mph 6 mph 99% 0.03 in 0 W/m2
21:05 45.2 °F 44.9 °F 29.88 in Calm   1 mph 99% 0.03 in 0 W/m2
Lisbon, New Hampshire, USA
Compliments of Weather Underground - 3.75 mb